sensor_id;sensor_type;location;lat;lon;timestamp;temperature;humidity
16118;DHT22;8163;50.118;5.342;2022-11-15T00:02:18;10.30;99.90
16118;DHT22;8163;50.118;5.342;2022-11-15T00:04:46;10.20;99.90
16118;DHT22;8163;50.118;5.342;2022-11-15T00:07:13;10.30;99.90
16118;DHT22;8163;50.118;5.342;2022-11-15T00:09:40;10.30;99.90
16118;DHT22;8163;50.118;5.342;2022-11-15T00:12:09;10.30;99.90
16118;DHT22;8163;50.118;5.342;2022-11-15T00:14:36;10.30;99.90
16118;DHT22;8163;50.118;5.342;2022-11-15T00:17:03;10.30;99.90
16118;DHT22;8163;50.118;5.342;2022-11-15T00:19:30;10.30;99.90
16118;DHT22;8163;50.118;5.342;2022-11-15T00:21:58;10.30;99.90
16118;DHT22;8163;50.118;5.342;2022-11-15T00:24:27;10.30;99.90
16118;DHT22;8163;50.118;5.342;2022-11-15T00:26:54;10.40;99.90
16118;DHT22;8163;50.118;5.342;2022-11-15T00:29:21;10.40;99.90
16118;DHT22;8163;50.118;5.342;2022-11-15T00:31:48;10.40;99.90
16118;DHT22;8163;50.118;5.342;2022-11-15T00:34:15;10.40;99.90
16118;DHT22;8163;50.118;5.342;2022-11-15T00:36:42;10.40;99.90
16118;DHT22;8163;50.118;5.342;2022-11-15T00:39:11;10.40;99.90
16118;DHT22;8163;50.118;5.342;2022-11-15T00:41:38;10.40;99.90
16118;DHT22;8163;50.118;5.342;2022-11-15T00:44:05;10.40;99.90
16118;DHT22;8163;50.118;5.342;2022-11-15T00:46:32;10.30;99.90
16118;DHT22;8163;50.118;5.342;2022-11-15T00:48:59;10.30;99.90
16118;DHT22;8163;50.118;5.342;2022-11-15T00:51:26;10.40;99.90
16118;DHT22;8163;50.118;5.342;2022-11-15T00:53:53;10.40;99.90
16118;DHT22;8163;50.118;5.342;2022-11-15T00:56:21;10.30;99.90
16118;DHT22;8163;50.118;5.342;2022-11-15T00:58:48;10.30;99.90
16118;DHT22;8163;50.118;5.342;2022-11-15T01:01:15;10.40;99.90
16118;DHT22;8163;50.118;5.342;2022-11-15T01:03:42;10.40;99.90
16118;DHT22;8163;50.118;5.342;2022-11-15T01:06:09;10.30;99.90
16118;DHT22;8163;50.118;5.342;2022-11-15T01:08:38;10.30;99.90
16118;DHT22;8163;50.118;5.342;2022-11-15T01:11:07;10.30;99.90
16118;DHT22;8163;50.118;5.342;2022-11-15T01:13:37;10.30;99.90
16118;DHT22;8163;50.118;5.342;2022-11-15T01:16:08;10.30;99.90
16118;DHT22;8163;50.118;5.342;2022-11-15T01:18:36;10.30;99.90
16118;DHT22;8163;50.118;5.342;2022-11-15T01:21:07;10.30;99.90
16118;DHT22;8163;50.118;5.342;2022-11-15T01:23:35;10.30;99.90
16118;DHT22;8163;50.118;5.342;2022-11-15T01:26:02;10.30;99.90
16118;DHT22;8163;50.118;5.342;2022-11-15T01:28:31;10.30;99.90
16118;DHT22;8163;50.118;5.342;2022-11-15T01:31:00;10.30;99.90
16118;DHT22;8163;50.118;5.342;2022-11-15T01:33:28;10.30;99.90
16118;DHT22;8163;50.118;5.342;2022-11-15T01:35:56;10.30;99.90
16118;DHT22;8163;50.118;5.342;2022-11-15T01:38:23;10.30;99.90
16118;DHT22;8163;50.118;5.342;2022-11-15T01:40:50;10.30;99.90
16118;DHT22;8163;50.118;5.342;2022-11-15T01:43:25;10.30;99.90
16118;DHT22;8163;50.118;5.342;2022-11-15T01:45:56;10.30;99.90
16118;DHT22;8163;50.118;5.342;2022-11-15T01:48:31;10.30;99.90
16118;DHT22;8163;50.118;5.342;2022-11-15T01:51:01;10.30;99.90
16118;DHT22;8163;50.118;5.342;2022-11-15T01:53:29;10.30;99.90
16118;DHT22;8163;50.118;5.342;2022-11-15T01:55:56;10.30;99.90
16118;DHT22;8163;50.118;5.342;2022-11-15T01:58:24;10.30;99.90
16118;DHT22;8163;50.118;5.342;2022-11-15T02:00:51;10.30;99.90
16118;DHT22;8163;50.118;5.342;2022-11-15T02:03:20;10.30;99.90
16118;DHT22;8163;50.118;5.342;2022-11-15T02:05:53;10.20;99.90
16118;DHT22;8163;50.118;5.342;2022-11-15T02:08:20;10.20;99.90
16118;DHT22;8163;50.118;5.342;2022-11-15T02:10:47;10.20;99.90
16118;DHT22;8163;50.118;5.342;2022-11-15T02:13:14;10.20;99.90
16118;DHT22;8163;50.118;5.342;2022-11-15T02:15:48;10.20;99.90
16118;DHT22;8163;50.118;5.342;2022-11-15T02:18:23;10.20;99.90
16118;DHT22;8163;50.118;5.342;2022-11-15T02:21:06;10.20;99.90
16118;DHT22;8163;50.118;5.342;2022-11-15T02:23:58;10.20;99.90
16118;DHT22;8163;50.118;5.342;2022-11-15T02:30:18;10.20;99.90
16118;DHT22;8163;50.118;5.342;2022-11-15T02:32:48;10.20;99.90
16118;DHT22;8163;50.118;5.342;2022-11-15T02:35:22;10.20;99.90
16118;DHT22;8163;50.118;5.342;2022-11-15T02:37:56;10.20;99.90
16118;DHT22;8163;50.118;5.342;2022-11-15T02:40:32;10.20;99.90
16118;DHT22;8163;50.118;5.342;2022-11-15T02:43:10;10.20;99.90
16118;DHT22;8163;50.118;5.342;2022-11-15T02:46:02;10.20;99.90
16118;DHT22;8163;50.118;5.342;2022-11-15T02:48:32;10.20;99.90
16118;DHT22;8163;50.118;5.342;2022-11-15T02:51:01;10.20;99.90
16118;DHT22;8163;50.118;5.342;2022-11-15T02:53:28;10.20;99.90
16118;DHT22;8163;50.118;5.342;2022-11-15T02:55:56;10.20;99.90
16118;DHT22;8163;50.118;5.342;2022-11-15T03:01:23;10.20;99.90
16118;DHT22;8163;50.118;5.342;2022-11-15T03:04:02;10.20;99.90
16118;DHT22;8163;50.118;5.342;2022-11-15T03:06:37;10.20;99.90
16118;DHT22;8163;50.118;5.342;2022-11-15T03:09:11;10.20;99.90
16118;DHT22;8163;50.118;5.342;2022-11-15T03:11:44;10.20;99.90
16118;DHT22;8163;50.118;5.342;2022-11-15T03:14:21;10.20;99.90
16118;DHT22;8163;50.118;5.342;2022-11-15T03:16:56;10.20;99.90
16118;DHT22;8163;50.118;5.342;2022-11-15T03:19:30;10.20;99.90
16118;DHT22;8163;50.118;5.342;2022-11-15T03:21:59;10.20;99.90
16118;DHT22;8163;50.118;5.342;2022-11-15T03:24:29;10.10;99.90
16118;DHT22;8163;50.118;5.342;2022-11-15T03:27:00;10.10;99.90
16118;DHT22;8163;50.118;5.342;2022-11-15T03:29:31;10.10;99.90
16118;DHT22;8163;50.118;5.342;2022-11-15T03:32:05;10.10;99.90
16118;DHT22;8163;50.118;5.342;2022-11-15T03:34:37;10.10;99.90
16118;DHT22;8163;50.118;5.342;2022-11-15T03:37:05;10.00;99.90
16118;DHT22;8163;50.118;5.342;2022-11-15T03:39:34;10.00;99.90
16118;DHT22;8163;50.118;5.342;2022-11-15T03:42:08;10.00;99.90
16118;DHT22;8163;50.118;5.342;2022-11-15T03:44:42;9.90;99.90
16118;DHT22;8163;50.118;5.342;2022-11-15T03:47:17;9.90;99.90
16118;DHT22;8163;50.118;5.342;2022-11-15T03:49:49;9.90;99.90
16118;DHT22;8163;50.118;5.342;2022-11-15T03:52:18;9.90;99.90
16118;DHT22;8163;50.118;5.342;2022-11-15T03:54:53;9.90;99.90
16118;DHT22;8163;50.118;5.342;2022-11-15T03:57:20;9.90;99.90
16118;DHT22;8163;50.118;5.342;2022-11-15T03:59:48;9.80;99.90
16118;DHT22;8163;50.118;5.342;2022-11-15T04:02:16;9.80;99.90
16118;DHT22;8163;50.118;5.342;2022-11-15T04:04:43;9.90;99.90
16118;DHT22;8163;50.118;5.342;2022-11-15T04:07:10;9.80;99.90
16118;DHT22;8163;50.118;5.342;2022-11-15T04:09:37;9.80;99.90
16118;DHT22;8163;50.118;5.342;2022-11-15T04:12:25;9.80;99.90
16118;DHT22;8163;50.118;5.342;2022-11-15T04:14:58;9.80;99.90
16118;DHT22;8163;50.118;5.342;2022-11-15T04:17:40;9.70;99.90
16118;DHT22;8163;50.118;5.342;2022-11-15T04:20:11;9.70;99.90
16118;DHT22;8163;50.118;5.342;2022-11-15T04:22:56;9.70;99.90
16118;DHT22;8163;50.118;5.342;2022-11-15T04:25:41;9.70;99.90
16118;DHT22;8163;50.118;5.342;2022-11-15T04:28:09;9.70;99.90
16118;DHT22;8163;50.118;5.342;2022-11-15T04:30:36;9.60;99.90
16118;DHT22;8163;50.118;5.342;2022-11-15T04:33:04;9.60;99.90
16118;DHT22;8163;50.118;5.342;2022-11-15T04:35:31;9.60;99.90
16118;DHT22;8163;50.118;5.342;2022-11-15T04:37:58;9.60;99.90
16118;DHT22;8163;50.118;5.342;2022-11-15T04:40:24;9.60;99.90
16118;DHT22;8163;50.118;5.342;2022-11-15T04:42:51;9.50;99.90
16118;DHT22;8163;50.118;5.342;2022-11-15T04:45:19;9.50;99.90
16118;DHT22;8163;50.118;5.342;2022-11-15T04:47:47;9.60;99.90
16118;DHT22;8163;50.118;5.342;2022-11-15T04:50:16;9.50;99.90
16118;DHT22;8163;50.118;5.342;2022-11-15T04:52:50;9.50;99.90
16118;DHT22;8163;50.118;5.342;2022-11-15T04:55:18;9.50;99.90
16118;DHT22;8163;50.118;5.342;2022-11-15T04:57:44;9.50;99.90
16118;DHT22;8163;50.118;5.342;2022-11-15T05:00:13;9.50;99.90
16118;DHT22;8163;50.118;5.342;2022-11-15T05:02:41;9.40;99.90
16118;DHT22;8163;50.118;5.342;2022-11-15T05:05:27;9.40;99.90
16118;DHT22;8163;50.118;5.342;2022-11-15T05:07:54;9.30;99.90
16118;DHT22;8163;50.118;5.342;2022-11-15T05:10:21;9.30;99.90
16118;DHT22;8163;50.118;5.342;2022-11-15T05:12:48;9.30;99.90
16118;DHT22;8163;50.118;5.342;2022-11-15T05:15:15;9.20;99.90
16118;DHT22;8163;50.118;5.342;2022-11-15T05:17:42;9.20;99.90
16118;DHT22;8163;50.118;5.342;2022-11-15T05:20:10;9.20;99.90
16118;DHT22;8163;50.118;5.342;2022-11-15T05:22:39;9.20;99.90
16118;DHT22;8163;50.118;5.342;2022-11-15T05:25:08;9.10;99.90
16118;DHT22;8163;50.118;5.342;2022-11-15T05:27:35;9.10;99.90
16118;DHT22;8163;50.118;5.342;2022-11-15T05:30:03;9.10;99.90
16118;DHT22;8163;50.118;5.342;2022-11-15T05:32:30;9.10;99.90
16118;DHT22;8163;50.118;5.342;2022-11-15T05:34:57;9.10;99.90
16118;DHT22;8163;50.118;5.342;2022-11-15T05:37:24;9.10;99.90
16118;DHT22;8163;50.118;5.342;2022-11-15T05:39:52;9.00;99.90
16118;DHT22;8163;50.118;5.342;2022-11-15T05:42:19;9.00;99.90
16118;DHT22;8163;50.118;5.342;2022-11-15T05:44:48;9.00;99.90
16118;DHT22;8163;50.118;5.342;2022-11-15T05:47:18;9.00;99.90
16118;DHT22;8163;50.118;5.342;2022-11-15T05:49:48;9.00;99.90
16118;DHT22;8163;50.118;5.342;2022-11-15T05:52:18;8.90;99.90
16118;DHT22;8163;50.118;5.342;2022-11-15T05:54:48;8.90;99.90
16118;DHT22;8163;50.118;5.342;2022-11-15T05:57:17;8.80;99.90
16118;DHT22;8163;50.118;5.342;2022-11-15T05:59:44;8.80;99.90
16118;DHT22;8163;50.118;5.342;2022-11-15T06:02:11;8.80;99.90
16118;DHT22;8163;50.118;5.342;2022-11-15T06:04:38;8.80;99.90
16118;DHT22;8163;50.118;5.342;2022-11-15T06:07:06;8.70;99.90
16118;DHT22;8163;50.118;5.342;2022-11-15T06:09:33;8.70;99.90
16118;DHT22;8163;50.118;5.342;2022-11-15T06:12:00;8.70;99.90
16118;DHT22;8163;50.118;5.342;2022-11-15T06:14:28;8.60;99.90
16118;DHT22;8163;50.118;5.342;2022-11-15T06:16:55;8.60;99.90
16118;DHT22;8163;50.118;5.342;2022-11-15T06:19:22;8.60;99.90
16118;DHT22;8163;50.118;5.342;2022-11-15T06:21:49;8.60;99.90
16118;DHT22;8163;50.118;5.342;2022-11-15T06:24:16;8.50;99.90
16118;DHT22;8163;50.118;5.342;2022-11-15T06:26:43;8.50;99.90
16118;DHT22;8163;50.118;5.342;2022-11-15T06:29:10;8.50;99.90
16118;DHT22;8163;50.118;5.342;2022-11-15T06:31:38;8.40;99.90
16118;DHT22;8163;50.118;5.342;2022-11-15T06:34:05;8.40;99.90
16118;DHT22;8163;50.118;5.342;2022-11-15T06:36:34;8.40;99.90
16118;DHT22;8163;50.118;5.342;2022-11-15T06:39:01;8.40;99.90
16118;DHT22;8163;50.118;5.342;2022-11-15T06:41:29;8.40;99.90
16118;DHT22;8163;50.118;5.342;2022-11-15T06:43:57;8.40;99.90
16118;DHT22;8163;50.118;5.342;2022-11-15T06:46:24;8.30;99.90
16118;DHT22;8163;50.118;5.342;2022-11-15T06:48:53;8.30;99.90
16118;DHT22;8163;50.118;5.342;2022-11-15T06:51:20;8.30;99.90
16118;DHT22;8163;50.118;5.342;2022-11-15T06:53:47;8.20;99.90
16118;DHT22;8163;50.118;5.342;2022-11-15T06:56:15;8.20;99.90
16118;DHT22;8163;50.118;5.342;2022-11-15T06:58:42;8.10;99.90
16118;DHT22;8163;50.118;5.342;2022-11-15T07:01:13;8.10;99.90
16118;DHT22;8163;50.118;5.342;2022-11-15T07:03:41;8.10;99.90
16118;DHT22;8163;50.118;5.342;2022-11-15T07:06:09;8.10;99.90
16118;DHT22;8163;50.118;5.342;2022-11-15T07:08:36;8.10;99.90
16118;DHT22;8163;50.118;5.342;2022-11-15T07:11:07;8.10;99.90
16118;DHT22;8163;50.118;5.342;2022-11-15T07:13:35;8.10;99.90
16118;DHT22;8163;50.118;5.342;2022-11-15T07:16:03;8.10;99.90
16118;DHT22;8163;50.118;5.342;2022-11-15T07:18:34;8.20;99.90
16118;DHT22;8163;50.118;5.342;2022-11-15T07:21:02;8.20;99.90
16118;DHT22;8163;50.118;5.342;2022-11-15T07:23:32;8.30;99.90
16118;DHT22;8163;50.118;5.342;2022-11-15T07:29:06;8.40;99.90
16118;DHT22;8163;50.118;5.342;2022-11-15T07:31:32;8.40;99.90
16118;DHT22;8163;50.118;5.342;2022-11-15T07:34:01;8.50;99.90
16118;DHT22;8163;50.118;5.342;2022-11-15T07:36:28;8.60;99.90
16118;DHT22;8163;50.118;5.342;2022-11-15T07:38:56;8.70;99.90
16118;DHT22;8163;50.118;5.342;2022-11-15T07:41:23;8.90;99.90
16118;DHT22;8163;50.118;5.342;2022-11-15T07:43:51;9.00;99.90
16118;DHT22;8163;50.118;5.342;2022-11-15T07:46:18;9.20;99.90
16118;DHT22;8163;50.118;5.342;2022-11-15T07:48:45;9.50;99.90
16118;DHT22;8163;50.118;5.342;2022-11-15T07:51:12;10.00;99.90
16118;DHT22;8163;50.118;5.342;2022-11-15T07:53:40;10.60;99.90
16118;DHT22;8163;50.118;5.342;2022-11-15T07:56:09;11.00;99.90
16118;DHT22;8163;50.118;5.342;2022-11-15T07:58:36;11.60;99.90
16118;DHT22;8163;50.118;5.342;2022-11-15T08:01:04;12.00;99.90
16118;DHT22;8163;50.118;5.342;2022-11-15T08:03:32;12.20;99.90
16118;DHT22;8163;50.118;5.342;2022-11-15T08:05:59;12.60;99.90
16118;DHT22;8163;50.118;5.342;2022-11-15T08:08:25;12.20;99.90
16118;DHT22;8163;50.118;5.342;2022-11-15T08:10:52;11.90;99.90
16118;DHT22;8163;50.118;5.342;2022-11-15T08:13:21;11.90;99.90
16118;DHT22;8163;50.118;5.342;2022-11-15T08:15:48;11.30;99.90
16118;DHT22;8163;50.118;5.342;2022-11-15T08:18:16;10.90;99.90
16118;DHT22;8163;50.118;5.342;2022-11-15T08:20:44;10.50;99.90
16118;DHT22;8163;50.118;5.342;2022-11-15T08:23:12;10.30;99.90
16118;DHT22;8163;50.118;5.342;2022-11-15T08:25:39;10.20;99.90
16118;DHT22;8163;50.118;5.342;2022-11-15T08:28:08;10.00;99.90
16118;DHT22;8163;50.118;5.342;2022-11-15T08:30:40;9.90;99.90
16118;DHT22;8163;50.118;5.342;2022-11-15T08:33:10;9.90;99.90
16118;DHT22;8163;50.118;5.342;2022-11-15T08:35:38;9.90;99.90
16118;DHT22;8163;50.118;5.342;2022-11-15T08:38:05;10.00;99.90
16118;DHT22;8163;50.118;5.342;2022-11-15T08:40:32;10.00;99.90
16118;DHT22;8163;50.118;5.342;2022-11-15T08:42:59;10.10;99.90
16118;DHT22;8163;50.118;5.342;2022-11-15T08:45:28;10.30;99.90
16118;DHT22;8163;50.118;5.342;2022-11-15T08:47:57;11.60;99.90
16118;DHT22;8163;50.118;5.342;2022-11-15T08:50:28;11.90;99.90
16118;DHT22;8163;50.118;5.342;2022-11-15T08:52:55;11.80;99.90
16118;DHT22;8163;50.118;5.342;2022-11-15T08:55:22;12.20;99.90
16118;DHT22;8163;50.118;5.342;2022-11-15T08:57:49;12.80;99.90
16118;DHT22;8163;50.118;5.342;2022-11-15T09:00:17;13.10;99.90
16118;DHT22;8163;50.118;5.342;2022-11-15T09:02:46;13.30;99.90
16118;DHT22;8163;50.118;5.342;2022-11-15T09:05:14;13.50;99.90
16118;DHT22;8163;50.118;5.342;2022-11-15T09:07:42;13.80;99.90
16118;DHT22;8163;50.118;5.342;2022-11-15T09:10:09;13.90;99.90
16118;DHT22;8163;50.118;5.342;2022-11-15T09:12:36;13.90;99.90
16118;DHT22;8163;50.118;5.342;2022-11-15T09:15:04;13.80;99.90
16118;DHT22;8163;50.118;5.342;2022-11-15T09:17:31;14.30;99.90
16118;DHT22;8163;50.118;5.342;2022-11-15T09:19:58;14.80;99.90
16118;DHT22;8163;50.118;5.342;2022-11-15T09:22:27;15.30;99.90
16118;DHT22;8163;50.118;5.342;2022-11-15T09:24:54;15.60;99.90
16118;DHT22;8163;50.118;5.342;2022-11-15T09:27:21;15.80;99.90
16118;DHT22;8163;50.118;5.342;2022-11-15T09:29:48;15.70;99.90
16118;DHT22;8163;50.118;5.342;2022-11-15T09:32:14;15.60;99.90
16118;DHT22;8163;50.118;5.342;2022-11-15T09:34:41;15.50;99.90
16118;DHT22;8163;50.118;5.342;2022-11-15T09:37:10;15.90;99.90
16118;DHT22;8163;50.118;5.342;2022-11-15T09:39:39;15.70;99.90
16118;DHT22;8163;50.118;5.342;2022-11-15T09:42:24;15.80;99.90
16118;DHT22;8163;50.118;5.342;2022-11-15T09:45:06;15.60;99.90
16118;DHT22;8163;50.118;5.342;2022-11-15T09:48:04;15.70;99.90
16118;DHT22;8163;50.118;5.342;2022-11-15T09:50:38;16.60;99.90
16118;DHT22;8163;50.118;5.342;2022-11-15T09:53:11;17.40;99.90
16118;DHT22;8163;50.118;5.342;2022-11-15T09:55:47;17.90;99.90
16118;DHT22;8163;50.118;5.342;2022-11-15T09:58:24;18.30;99.90
16118;DHT22;8163;50.118;5.342;2022-11-15T10:00:51;18.50;99.90
16118;DHT22;8163;50.118;5.342;2022-11-15T10:03:25;18.70;99.90
16118;DHT22;8163;50.118;5.342;2022-11-15T10:05:59;19.10;99.90
16118;DHT22;8163;50.118;5.342;2022-11-15T10:08:50;19.20;99.90
16118;DHT22;8163;50.118;5.342;2022-11-15T10:11:22;18.90;99.90
16118;DHT22;8163;50.118;5.342;2022-11-15T10:13:50;18.40;99.90
16118;DHT22;8163;50.118;5.342;2022-11-15T10:19:30;17.30;99.90
16118;DHT22;8163;50.118;5.342;2022-11-15T10:22:12;18.40;99.90
16118;DHT22;8163;50.118;5.342;2022-11-15T10:24:42;19.00;99.90
16118;DHT22;8163;50.118;5.342;2022-11-15T10:27:13;19.10;99.90
16118;DHT22;8163;50.118;5.342;2022-11-15T10:29:45;19.50;99.90
16118;DHT22;8163;50.118;5.342;2022-11-15T10:32:14;19.50;98.30
16118;DHT22;8163;50.118;5.342;2022-11-15T10:34:41;19.40;99.90
16118;DHT22;8163;50.118;5.342;2022-11-15T10:37:09;19.70;96.80
16118;DHT22;8163;50.118;5.342;2022-11-15T10:39:36;20.00;94.20
16118;DHT22;8163;50.118;5.342;2022-11-15T10:42:25;20.30;92.70
16118;DHT22;8163;50.118;5.342;2022-11-15T10:44:52;19.90;91.60
16118;DHT22;8163;50.118;5.342;2022-11-15T10:47:28;19.50;91.40
16118;DHT22;8163;50.118;5.342;2022-11-15T10:50:02;18.50;88.30
16118;DHT22;8163;50.118;5.342;2022-11-15T10:52:31;19.40;90.40
16118;DHT22;8163;50.118;5.342;2022-11-15T10:55:04;18.30;88.20
16118;DHT22;8163;50.118;5.342;2022-11-15T10:57:37;17.80;87.40
16118;DHT22;8163;50.118;5.342;2022-11-15T11:00:07;17.30;88.30
16118;DHT22;8163;50.118;5.342;2022-11-15T11:02:58;17.20;89.10
16118;DHT22;8163;50.118;5.342;2022-11-15T11:05:27;18.00;90.40
16118;DHT22;8163;50.118;5.342;2022-11-15T11:07:57;18.60;90.10
16118;DHT22;8163;50.118;5.342;2022-11-15T11:10:25;18.80;90.00
16118;DHT22;8163;50.118;5.342;2022-11-15T11:12:53;18.70;87.50
16118;DHT22;8163;50.118;5.342;2022-11-15T11:15:23;18.70;87.20
16118;DHT22;8163;50.118;5.342;2022-11-15T11:18:00;18.80;87.50
16118;DHT22;8163;50.118;5.342;2022-11-15T11:20:33;18.90;86.60
16118;DHT22;8163;50.118;5.342;2022-11-15T11:23:12;18.70;87.00
16118;DHT22;8163;50.118;5.342;2022-11-15T11:25:49;18.70;85.80
16118;DHT22;8163;50.118;5.342;2022-11-15T11:28:33;18.50;84.90
16118;DHT22;8163;50.118;5.342;2022-11-15T11:31:14;18.20;85.10
16118;DHT22;8163;50.118;5.342;2022-11-15T11:33:49;17.60;85.00
16118;DHT22;8163;50.118;5.342;2022-11-15T11:36:24;16.80;85.00
16118;DHT22;8163;50.118;5.342;2022-11-15T11:38:58;16.30;85.40
16118;DHT22;8163;50.118;5.342;2022-11-15T11:41:43;16.00;86.40
16118;DHT22;8163;50.118;5.342;2022-11-15T11:44:41;16.10;87.70
16118;DHT22;8163;50.118;5.342;2022-11-15T11:47:11;16.00;88.30
16118;DHT22;8163;50.118;5.342;2022-11-15T11:49:43;15.60;88.40
16118;DHT22;8163;50.118;5.342;2022-11-15T11:52:14;15.40;89.30
16118;DHT22;8163;50.118;5.342;2022-11-15T11:54:49;15.10;89.10
16118;DHT22;8163;50.118;5.342;2022-11-15T11:57:27;14.80;89.60
16118;DHT22;8163;50.118;5.342;2022-11-15T12:00:02;14.60;90.00
16118;DHT22;8163;50.118;5.342;2022-11-15T12:02:34;14.30;90.30
16118;DHT22;8163;50.118;5.342;2022-11-15T12:05:09;14.10;90.70
16118;DHT22;8163;50.118;5.342;2022-11-15T12:07:39;14.00;91.30
16118;DHT22;8163;50.118;5.342;2022-11-15T12:10:17;14.00;91.90
16118;DHT22;8163;50.118;5.342;2022-11-15T12:12:51;13.90;92.70
16118;DHT22;8163;50.118;5.342;2022-11-15T12:15:23;13.80;93.50
16118;DHT22;8163;50.118;5.342;2022-11-15T12:17:52;13.70;94.50
16118;DHT22;8163;50.118;5.342;2022-11-15T12:20:22;13.70;95.90
16118;DHT22;8163;50.118;5.342;2022-11-15T12:22:54;13.70;97.00
16118;DHT22;8163;50.118;5.342;2022-11-15T12:25:25;13.60;98.20
16118;DHT22;8163;50.118;5.342;2022-11-15T12:27:59;13.60;99.50
16118;DHT22;8163;50.118;5.342;2022-11-15T12:30:41;13.60;99.90
16118;DHT22;8163;50.118;5.342;2022-11-15T12:33:30;13.60;99.90
16118;DHT22;8163;50.118;5.342;2022-11-15T12:35:59;13.60;99.90
16118;DHT22;8163;50.118;5.342;2022-11-15T12:38:52;13.60;99.90
16118;DHT22;8163;50.118;5.342;2022-11-15T12:41:21;13.70;99.90
16118;DHT22;8163;50.118;5.342;2022-11-15T12:43:49;13.60;99.90
16118;DHT22;8163;50.118;5.342;2022-11-15T12:46:25;13.50;99.90
16118;DHT22;8163;50.118;5.342;2022-11-15T12:49:11;13.50;99.90
16118;DHT22;8163;50.118;5.342;2022-11-15T12:52:08;13.70;99.90
16118;DHT22;8163;50.118;5.342;2022-11-15T12:54:58;13.80;99.90
16118;DHT22;8163;50.118;5.342;2022-11-15T12:57:38;14.00;99.90
16118;DHT22;8163;50.118;5.342;2022-11-15T13:03:28;14.10;99.90
16118;DHT22;8163;50.118;5.342;2022-11-15T13:06:08;14.10;99.90
16118;DHT22;8163;50.118;5.342;2022-11-15T13:08:41;14.10;99.90
16118;DHT22;8163;50.118;5.342;2022-11-15T13:11:50;14.00;99.90
16118;DHT22;8163;50.118;5.342;2022-11-15T13:14:43;13.90;99.90
16118;DHT22;8163;50.118;5.342;2022-11-15T13:17:33;13.80;99.90
16118;DHT22;8163;50.118;5.342;2022-11-15T13:20:20;13.80;99.90
16118;DHT22;8163;50.118;5.342;2022-11-15T13:22:50;13.70;99.90
16118;DHT22;8163;50.118;5.342;2022-11-15T13:25:22;13.80;99.90
16118;DHT22;8163;50.118;5.342;2022-11-15T13:27:51;13.70;99.90
16118;DHT22;8163;50.118;5.342;2022-11-15T13:30:22;13.60;99.90
16118;DHT22;8163;50.118;5.342;2022-11-15T13:32:50;13.60;99.90
16118;DHT22;8163;50.118;5.342;2022-11-15T13:35:22;13.50;99.90
16118;DHT22;8163;50.118;5.342;2022-11-15T13:37:50;13.40;99.90
16118;DHT22;8163;50.118;5.342;2022-11-15T13:40:23;13.30;99.90
16118;DHT22;8163;50.118;5.342;2022-11-15T13:42:53;13.20;99.90
16118;DHT22;8163;50.118;5.342;2022-11-15T13:45:20;13.10;99.90
16118;DHT22;8163;50.118;5.342;2022-11-15T13:47:53;13.10;99.90
16118;DHT22;8163;50.118;5.342;2022-11-15T13:50:25;13.00;99.90
16118;DHT22;8163;50.118;5.342;2022-11-15T13:52:57;13.00;99.90
16118;DHT22;8163;50.118;5.342;2022-11-15T13:55:26;12.90;99.90
16118;DHT22;8163;50.118;5.342;2022-11-15T13:57:56;12.90;99.90
16118;DHT22;8163;50.118;5.342;2022-11-15T14:00:32;12.80;99.90
16118;DHT22;8163;50.118;5.342;2022-11-15T14:03:07;12.80;99.90
16118;DHT22;8163;50.118;5.342;2022-11-15T14:05:36;12.80;99.90
16118;DHT22;8163;50.118;5.342;2022-11-15T14:08:20;12.70;99.90
16118;DHT22;8163;50.118;5.342;2022-11-15T14:10:48;12.70;99.90
16118;DHT22;8163;50.118;5.342;2022-11-15T14:13:32;12.70;99.90
16118;DHT22;8163;50.118;5.342;2022-11-15T14:16:13;12.70;99.90
16118;DHT22;8163;50.118;5.342;2022-11-15T14:18:43;12.60;99.90
16118;DHT22;8163;50.118;5.342;2022-11-15T14:21:12;12.60;99.90
16118;DHT22;8163;50.118;5.342;2022-11-15T14:23:39;12.50;99.90
16118;DHT22;8163;50.118;5.342;2022-11-15T14:26:10;12.50;99.90
16118;DHT22;8163;50.118;5.342;2022-11-15T14:28:38;12.50;99.90
16118;DHT22;8163;50.118;5.342;2022-11-15T14:31:10;12.50;99.90
16118;DHT22;8163;50.118;5.342;2022-11-15T14:33:39;12.50;99.90
16118;DHT22;8163;50.118;5.342;2022-11-15T14:36:13;12.50;99.90
16118;DHT22;8163;50.118;5.342;2022-11-15T14:38:40;12.50;99.90
16118;DHT22;8163;50.118;5.342;2022-11-15T14:41:18;12.50;99.90
16118;DHT22;8163;50.118;5.342;2022-11-15T14:43:46;12.40;99.90
16118;DHT22;8163;50.118;5.342;2022-11-15T14:46:13;12.40;99.90
16118;DHT22;8163;50.118;5.342;2022-11-15T14:48:40;12.40;99.90
16118;DHT22;8163;50.118;5.342;2022-11-15T14:51:15;12.30;99.90
16118;DHT22;8163;50.118;5.342;2022-11-15T14:53:44;12.30;99.90
16118;DHT22;8163;50.118;5.342;2022-11-15T14:56:12;12.30;99.90
16118;DHT22;8163;50.118;5.342;2022-11-15T14:58:39;12.30;99.90
16118;DHT22;8163;50.118;5.342;2022-11-15T15:38:44;11.80;99.90
16118;DHT22;8163;50.118;5.342;2022-11-15T15:41:12;11.70;99.90
16118;DHT22;8163;50.118;5.342;2022-11-15T15:43:40;11.60;99.90
16118;DHT22;8163;50.118;5.342;2022-11-15T15:46:09;11.50;99.90
16118;DHT22;8163;50.118;5.342;2022-11-15T15:48:37;11.50;99.90
16118;DHT22;8163;50.118;5.342;2022-11-15T15:51:05;11.40;99.90
16118;DHT22;8163;50.118;5.342;2022-11-15T15:53:32;11.40;99.90
16118;DHT22;8163;50.118;5.342;2022-11-15T15:56:01;11.40;99.90
16118;DHT22;8163;50.118;5.342;2022-11-15T15:58:28;11.30;99.90
16118;DHT22;8163;50.118;5.342;2022-11-15T16:00:55;11.30;99.90
16118;DHT22;8163;50.118;5.342;2022-11-15T16:03:22;11.20;99.90
16118;DHT22;8163;50.118;5.342;2022-11-15T16:05:50;11.20;99.90
16118;DHT22;8163;50.118;5.342;2022-11-15T16:08:18;11.20;99.90
16118;DHT22;8163;50.118;5.342;2022-11-15T16:10:45;11.20;99.90
16118;DHT22;8163;50.118;5.342;2022-11-15T16:13:14;11.20;99.90
16118;DHT22;8163;50.118;5.342;2022-11-15T16:15:42;11.10;99.90
16118;DHT22;8163;50.118;5.342;2022-11-15T16:18:15;11.10;99.90
16118;DHT22;8163;50.118;5.342;2022-11-15T16:20:44;11.10;99.90
16118;DHT22;8163;50.118;5.342;2022-11-15T16:23:13;11.10;99.90
16118;DHT22;8163;50.118;5.342;2022-11-15T16:25:44;11.10;99.90
16118;DHT22;8163;50.118;5.342;2022-11-15T16:28:23;11.10;99.90
16118;DHT22;8163;50.118;5.342;2022-11-15T16:31:00;11.10;99.90
16118;DHT22;8163;50.118;5.342;2022-11-15T16:33:27;11.10;99.90
16118;DHT22;8163;50.118;5.342;2022-11-15T16:35:54;11.00;99.90
16118;DHT22;8163;50.118;5.342;2022-11-15T16:38:21;11.00;99.90
16118;DHT22;8163;50.118;5.342;2022-11-15T16:40:48;11.00;99.90
16118;DHT22;8163;50.118;5.342;2022-11-15T16:43:15;11.00;99.90
16118;DHT22;8163;50.118;5.342;2022-11-15T16:45:44;11.00;99.90
16118;DHT22;8163;50.118;5.342;2022-11-15T16:48:19;11.00;99.90
16118;DHT22;8163;50.118;5.342;2022-11-15T16:50:47;11.00;99.90
16118;DHT22;8163;50.118;5.342;2022-11-15T16:53:15;11.00;99.90
16118;DHT22;8163;50.118;5.342;2022-11-15T16:55:42;11.00;99.90
16118;DHT22;8163;50.118;5.342;2022-11-15T16:58:09;11.00;99.90
16118;DHT22;8163;50.118;5.342;2022-11-15T17:00:36;11.00;99.90
16118;DHT22;8163;50.118;5.342;2022-11-15T17:03:04;11.00;99.90
16118;DHT22;8163;50.118;5.342;2022-11-15T17:05:31;11.00;99.90
16118;DHT22;8163;50.118;5.342;2022-11-15T17:07:58;10.90;99.90